Time;durP1;ratioP1;P1;durP2;ratioP2;P2;SDS_P1;SDS_P2;PMS_P1;PMS_P2;Temp;Humidity;BMP_temperature;BMP_pressure;BME280_temperature;BME280_humidity;BME280_pressure;Samples;Min_cycle;Max_cycle;Signal;HPM_P1;HPM_P2
2022/04/09 00:01:38;;;;;;;7.85;2.35;;;7.10;95.20;;;;;;5051854;28;20025;-76
2022/04/09 00:04:04;;;;;;;9.05;2.05;;;7.10;95.10;;;;;;5050273;28;20121;-76
2022/04/09 00:06:30;;;;;;;8.82;2.40;;;7.00;95.20;;;;;;5051305;28;20056;-76
2022/04/09 00:08:55;;;;;;;10.38;2.38;;;6.90;95.40;;;;;;5050726;28;20064;-77
2022/04/09 00:11:21;;;;;;;10.07;2.08;;;7.10;95.30;;;;;;5051206;28;20052;-76
2022/04/09 00:13:46;;;;;;;9.73;2.30;;;7.00;95.20;;;;;;5051184;28;20021;-75
2022/04/09 00:16:12;;;;;;;13.95;2.17;;;7.00;95.20;;;;;;5051588;28;20017;-77
2022/04/09 00:18:38;;;;;;;6.43;2.13;;;6.90;95.30;;;;;;5051457;28;20025;-76
2022/04/09 00:21:06;;;;;;;12.10;2.25;;;6.80;95.40;;;;;;5051101;28;20089;-75
2022/04/09 00:23:32;;;;;;;9.88;2.85;;;6.90;95.40;;;;;;5051064;28;20033;-75
2022/04/09 00:25:57;;;;;;;9.13;2.15;;;7.00;95.40;;;;;;5049849;28;20025;-76
2022/04/09 00:28:23;;;;;;;13.20;2.00;;;6.90;95.40;;;;;;5050320;28;20029;-75
2022/04/09 00:30:49;;;;;;;5.63;1.85;;;6.70;95.60;;;;;;5050963;28;20089;-75
2022/04/09 00:33:14;;;;;;;6.78;1.42;;;6.70;95.80;;;;;;5050802;28;20131;-75
2022/04/09 00:35:42;;;;;;;7.95;1.70;;;6.70;95.90;;;;;;5050561;28;20558;-75
2022/04/09 00:38:08;;;;;;;;;;;6.60;96.00;;;;;;5051285;28;20075;-75
2022/04/09 00:40:33;;;;;;;10.18;1.98;;;6.60;96.00;;;;;;5051136;28;19948;-76
2022/04/09 00:42:59;;;;;;;13.10;2.50;;;6.50;96.00;;;;;;5049832;28;20036;-75
2022/04/09 00:45:25;;;;;;;16.65;2.10;;;6.60;96.00;;;;;;5050689;28;20029;-75
2022/04/09 00:47:50;;;;;;;8.80;2.60;;;6.60;96.10;;;;;;5050733;28;20032;-77
2022/04/09 00:50:16;;;;;;;10.02;2.92;;;6.50;96.10;;;;;;5050918;28;20032;-76
2022/04/09 00:52:50;;;;;;;13.98;2.03;;;6.40;96.40;;;;;;5050769;28;20170;-74
2022/04/09 00:55:18;;;;;;;12.45;1.95;;;6.50;96.40;;;;;;5051149;28;20110;-76
2022/04/09 00:57:46;;;;;;;10.75;1.88;;;6.40;96.50;;;;;;5049652;28;20365;-76
2022/04/09 01:00:13;;;;;;;6.75;1.67;;;6.50;96.50;;;;;;5050831;28;20040;-75
2022/04/09 01:02:41;;;;;;;18.33;2.03;;;6.50;96.50;;;;;;5050621;28;20100;-76
2022/04/09 01:05:07;;;;;;;7.93;1.83;;;6.40;96.50;;;;;;5049570;28;20033;-76
2022/04/09 01:07:33;;;;;;;7.93;1.60;;;6.40;96.60;;;;;;5051098;28;20032;-76
2022/04/09 01:10:00;;;;;;;13.38;1.92;;;6.40;96.70;;;;;;5049432;28;20039;-76
2022/04/09 01:12:26;;;;;;;15.10;2.00;;;6.50;96.60;;;;;;5049512;28;20048;-76
2022/04/09 01:14:51;;;;;;;14.27;2.42;;;6.50;96.60;;;;;;5050566;28;20025;-75
2022/04/09 01:17:17;;;;;;;5.68;1.60;;;6.50;96.70;;;;;;5050384;28;20025;-75
2022/04/09 01:19:43;;;;;;;11.77;1.70;;;6.50;96.90;;;;;;5050755;28;20033;-75
2022/04/09 01:22:09;;;;;;;8.35;1.85;;;6.60;96.90;;;;;;5055053;28;20029;-75
2022/04/09 01:24:34;;;;;;;7.72;1.90;;;6.60;96.90;;;;;;5054469;28;20116;-75
2022/04/09 01:27:00;;;;;;;15.25;2.10;;;6.60;96.90;;;;;;5054385;28;20029;-76
2022/04/09 01:29:26;;;;;;;10.30;2.30;;;6.70;96.90;;;;;;5054321;28;20033;-75
2022/04/09 01:31:52;;;;;;;8.15;1.70;;;6.60;96.90;;;;;;5054464;28;20231;-75
2022/04/09 01:34:17;;;;;;;12.55;1.70;;;6.60;97.00;;;;;;5054425;28;20438;-75
2022/04/09 01:36:43;;;;;;;15.20;2.33;;;6.70;97.00;;;;;;5052737;28;20529;-75
2022/04/09 01:39:08;;;;;;;13.00;1.77;;;6.70;96.80;;;;;;5053057;28;20040;-76
2022/04/09 01:41:34;;;;;;;10.50;2.03;;;6.80;96.80;;;;;;5054070;28;20025;-76
2022/04/09 01:43:59;;;;;;;6.88;1.90;;;6.60;97.00;;;;;;5054001;28;20120;-75
2022/04/09 01:46:25;;;;;;;9.32;1.67;;;6.60;97.20;;;;;;5054379;28;20035;-75
2022/04/09 01:48:50;;;;;;;11.35;1.73;;;6.50;97.20;;;;;;5053871;28;20409;-76
2022/04/09 01:51:16;;;;;;;12.60;1.73;;;6.60;97.20;;;;;;5053876;28;20033;-76
2022/04/09 01:53:41;;;;;;;8.75;1.48;;;6.50;97.30;;;;;;5053703;28;20041;-76
2022/04/09 01:56:07;;;;;;;6.78;1.80;;;6.50;97.20;;;;;;5053697;28;20033;-76
2022/04/09 01:58:33;;;;;;;9.00;2.00;;;6.50;97.30;;;;;;5054228;28;20025;-75
2022/04/09 02:00:59;;;;;;;17.30;2.75;;;6.40;97.50;;;;;;5053721;28;20116;-75
2022/04/09 02:03:27;;;;;;;8.23;1.67;;;6.40;97.50;;;;;;5053681;28;20055;-77
2022/04/09 02:05:53;;;;;;;9.93;1.73;;;6.40;97.60;;;;;;5053655;28;20466;-75
2022/04/09 02:08:19;;;;;;;10.38;1.80;;;6.50;98.00;;;;;;5053562;28;20048;-77
2022/04/09 02:10:45;;;;;;;10.45;1.92;;;6.30;97.60;;;;;;5053383;28;20092;-77
2022/04/09 02:13:14;;;;;;;10.38;1.35;;;6.30;97.70;;;;;;5053807;28;20029;-76
2022/04/09 02:15:40;;;;;;;14.00;2.05;;;6.40;97.60;;;;;;5053490;28;20021;-75
2022/04/09 02:18:05;;;;;;;16.75;2.60;;;6.30;97.80;;;;;;5053265;28;20036;-76
2022/04/09 02:20:33;;;;;;;8.98;1.92;;;6.30;97.90;;;;;;5053336;28;20025;-75
2022/04/09 02:22:58;;;;;;;11.80;1.87;;;6.20;98.00;;;;;;5053312;28;20025;-76
2022/04/09 02:25:24;;;;;;;7.35;2.03;;;6.30;98.00;;;;;;5053670;28;20108;-75
2022/04/09 02:27:50;;;;;;;8.68;2.05;;;6.40;97.90;;;;;;5052096;28;20053;-74
2022/04/09 02:30:15;;;;;;;14.98;2.25;;;6.40;97.80;;;;;;5052042;28;20029;-75
2022/04/09 02:32:49;;;;;;;11.93;2.60;;;6.40;97.80;;;;;;5052632;28;20486;-75
2022/04/09 02:35:15;;;;;;;17.92;2.10;;;6.40;98.00;;;;;;5052827;28;20144;-75
2022/04/09 02:37:40;;;;;;;13.23;2.70;;;6.40;97.90;;;;;;5053046;28;20056;-74
2022/04/09 02:40:07;;;;;;;11.88;1.70;;;6.30;98.10;;;;;;5053323;28;20450;-75
2022/04/09 02:42:36;;;;;;;7.68;2.00;;;6.40;98.00;;;;;;5052951;28;20044;-75
2022/04/09 02:45:02;;;;;;;12.95;2.33;;;6.40;98.10;;;;;;5052868;28;20115;-76
2022/04/09 02:47:28;;;;;;;9.88;2.03;;;6.40;98.10;;;;;;5052764;28;20032;-74
2022/04/09 02:49:53;;;;;;;15.40;2.78;;;6.40;98.00;;;;;;5052841;28;20033;-75
2022/04/09 02:52:19;;;;;;;10.23;1.77;;;6.30;98.10;;;;;;5053058;28;20029;-76
2022/04/09 02:54:44;;;;;;;9.15;1.88;;;6.40;98.10;;;;;;5052623;28;20029;-76
2022/04/09 02:57:10;;;;;;;13.57;2.00;;;6.40;98.00;;;;;;5052641;28;20022;-77
2022/04/09 02:59:35;;;;;;;14.95;2.53;;;6.40;98.10;;;;;;5053062;28;20358;-77
2022/04/09 03:02:01;;;;;;;9.73;2.17;;;6.30;98.00;;;;;;5052698;28;20029;-77
2022/04/09 03:04:26;;;;;;;10.55;2.00;;;6.30;98.30;;;;;;5052990;28;20343;-76
2022/04/09 03:06:52;;;;;;;12.90;2.40;;;6.30;98.10;;;;;;5052547;28;20036;-77
2022/04/09 03:09:17;;;;;;;9.38;2.40;;;6.30;98.10;;;;;;5052511;28;20052;-76
2022/04/09 03:11:43;;;;;;;12.85;2.40;;;6.30;98.30;;;;;;5052340;28;20025;-76
2022/04/09 03:14:09;;;;;;;15.15;2.38;;;6.30;98.20;;;;;;5051320;28;20044;-77
2022/04/09 03:16:35;;;;;;;12.63;2.33;;;6.50;98.20;;;;;;5052698;28;20341;-75
2022/04/09 03:19:00;;;;;;;9.60;1.98;;;6.40;98.00;;;;;;5052300;28;20040;-76
2022/04/09 03:21:26;;;;;;;11.77;2.53;;;6.50;98.00;;;;;;5052369;28;20051;-76
2022/04/09 03:23:52;;;;;;;11.27;2.58;;;6.40;98.10;;;;;;5052185;28;20037;-75
2022/04/09 03:26:18;;;;;;;11.68;2.20;;;6.20;98.30;;;;;;5051949;28;20040;-76
2022/04/09 03:28:43;;;;;;;6.40;1.80;;;6.30;98.20;;;;;;5050920;28;20264;-75
2022/04/09 03:31:09;;;;;;;17.05;2.25;;;6.30;98.30;;;;;;5051488;28;20107;-76
2022/04/09 03:33:35;;;;;;;14.30;2.63;;;6.20;98.40;;;;;;5051864;28;20033;-77
2022/04/09 03:36:01;;;;;;;7.15;1.60;;;6.20;98.60;;;;;;5050591;28;20098;-75
2022/04/09 03:38:27;;;;;;;17.48;2.28;;;6.20;98.60;;;;;;5051893;28;20037;-75
2022/04/09 03:40:52;;;;;;;11.65;2.20;;;6.20;98.50;;;;;;5051797;28;20037;-76
2022/04/09 03:43:17;;;;;;;11.50;2.00;;;6.10;98.50;;;;;;5051309;28;20031;-77
2022/04/09 03:45:46;;;;;;;9.18;2.03;;;6.10;98.60;;;;;;5051687;28;20039;-76
2022/04/09 03:48:12;;;;;;;8.77;1.92;;;6.20;98.50;;;;;;5050767;28;20414;-76
2022/04/09 03:50:37;;;;;;;11.00;1.92;;;6.20;98.50;;;;;;5051593;28;20090;-76
2022/04/09 03:53:03;;;;;;;6.05;1.92;;;6.20;98.40;;;;;;5051473;28;20112;-75
2022/04/09 03:55:29;;;;;;;8.52;2.13;;;6.20;98.50;;;;;;5051928;28;20075;-76
2022/04/09 03:57:56;;;;;;;14.13;2.47;;;6.20;98.40;;;;;;5051342;28;20497;-75
2022/04/09 04:00:22;;;;;;;12.20;2.03;;;6.10;98.50;;;;;;5051411;28;20048;-76
2022/04/09 04:02:48;;;;;;;13.85;2.33;;;6.20;98.50;;;;;;5051372;28;20032;-76
2022/04/09 04:05:13;;;;;;;16.17;2.15;;;6.10;98.50;;;;;;5051300;28;20032;-76
2022/04/09 04:07:43;;;;;;;9.25;1.90;;;6.00;98.70;;;;;;5050589;28;20028;-76
2022/04/09 04:10:10;;;;;;;8.00;2.20;;;6.00;98.70;;;;;;5050508;28;20059;-76
2022/04/09 04:12:36;;;;;;;10.13;1.95;;;6.00;98.90;;;;;;5051218;28;20454;-76
2022/04/09 04:15:02;;;;;;;10.68;2.30;;;6.00;98.70;;;;;;5051222;28;20051;-75
2022/04/09 04:17:38;;;;;;;21.13;2.88;;;6.00;98.80;;;;;;5050140;28;20501;-74
2022/04/09 04:20:05;;;;;;;15.18;2.40;;;5.90;98.90;;;;;;5050257;28;20039;-76
2022/04/09 04:22:30;;;;;;;12.77;2.25;;;5.90;98.90;;;;;;5051561;28;20036;-78
2022/04/09 04:24:56;;;;;;;7.95;2.05;;;5.90;98.90;;;;;;5051402;28;20033;-76
2022/04/09 04:27:21;;;;;;;8.23;2.05;;;5.90;98.90;;;;;;5051168;28;20037;-76
2022/04/09 04:29:47;;;;;;;10.30;2.67;;;5.90;98.80;;;;;;5050988;28;20036;-76
2022/04/09 04:32:12;;;;;;;8.68;2.03;;;6.00;98.80;;;;;;5050858;28;20052;-77
2022/04/09 04:34:38;;;;;;;5.78;1.83;;;5.80;98.90;;;;;;5050983;28;20029;-76
2022/04/09 04:37:04;;;;;;;9.77;2.15;;;5.80;99.00;;;;;;5050864;28;20037;-76
2022/04/09 04:39:29;;;;;;;8.00;2.03;;;6.00;98.90;;;;;;5050904;28;20498;-77
2022/04/09 04:41:55;;;;;;;13.75;2.63;;;6.00;98.80;;;;;;5050932;28;20021;-76
2022/04/09 04:44:21;;;;;;;10.60;2.30;;;6.10;98.60;;;;;;5050947;28;20025;-77
2022/04/09 04:46:46;;;;;;;12.07;1.90;;;6.00;98.70;;;;;;5049825;28;20328;-76
2022/04/09 04:49:12;;;;;;;17.05;2.38;;;6.10;98.70;;;;;;5051264;28;20021;-77
2022/04/09 04:51:37;;;;;;;5.22;1.65;;;6.10;98.80;;;;;;5050791;28;20045;-77
2022/04/09 04:54:03;;;;;;;16.65;2.22;;;6.10;98.60;;;;;;5052498;28;20366;-77
2022/04/09 04:56:29;;;;;;;11.00;1.83;;;6.00;98.70;;;;;;5057461;28;20021;-76
2022/04/09 04:58:54;;;;;;;10.00;1.98;;;6.10;98.60;;;;;;5056380;28;20025;-76
2022/04/09 05:01:20;;;;;;;18.27;2.22;;;6.10;98.60;;;;;;5057950;28;20028;-75
2022/04/09 05:03:46;;;;;;;10.13;1.92;;;6.10;98.70;;;;;;5057262;28;20401;-77
2022/04/09 05:06:11;;;;;;;11.18;2.17;;;6.00;98.60;;;;;;5057677;28;20093;-76
2022/04/09 05:08:38;;;;;;;10.35;2.00;;;5.80;98.90;;;;;;5057332;28;20025;-77
2022/04/09 05:11:04;;;;;;;16.52;2.92;;;5.90;99.10;;;;;;5056139;28;20037;-76
2022/04/09 05:13:30;;;;;;;12.13;1.88;;;5.90;99.00;;;;;;5057796;28;20131;-76
2022/04/09 05:15:55;;;;;;;9.77;1.75;;;5.90;98.90;;;;;;5057343;28;20057;-76
2022/04/09 05:18:21;;;;;;;19.88;2.33;;;5.80;99.10;;;;;;5057307;28;20381;-75
2022/04/09 05:20:46;;;;;;;8.95;1.95;;;5.90;99.00;;;;;;5057319;28;20025;-74
2022/04/09 05:23:12;;;;;;;10.15;2.10;;;6.00;99.00;;;;;;5057212;28;20025;-74
2022/04/09 05:25:37;;;;;;;17.42;1.90;;;6.00;99.00;;;;;;5057576;28;20029;-74
2022/04/09 05:28:05;;;;;;;16.33;2.67;;;5.90;99.00;;;;;;5057114;28;20029;-74
2022/04/09 05:30:32;;;;;;;16.60;3.37;;;6.00;99.10;;;;;;5057240;28;20029;-75
2022/04/09 05:32:57;;;;;;;7.38;2.15;;;5.90;99.10;;;;;;5057086;28;20278;-76
2022/04/09 05:35:23;;;;;;;9.25;2.30;;;6.00;99.10;;;;;;5056863;28;20115;-77
2022/04/09 05:37:50;;;;;;;10.32;2.13;;;5.90;99.20;;;;;;5057008;28;20040;-76
2022/04/09 05:40:16;;;;;;;10.75;2.60;;;6.10;99.10;;;;;;5056436;28;20199;-75
2022/04/09 05:42:41;;;;;;;12.30;2.28;;;6.10;98.80;;;;;;5056864;28;20635;-75
2022/04/09 05:45:08;;;;;;;8.65;2.53;;;6.20;98.90;;;;;;5057028;28;20488;-76
2022/04/09 05:47:33;;;;;;;16.83;2.30;;;6.20;98.80;;;;;;5057081;28;20482;-75
2022/04/09 05:49:59;;;;;;;10.05;3.10;;;6.20;98.80;;;;;;5056763;28;20035;-74
2022/04/09 05:52:24;;;;;;;6.78;2.08;;;6.30;99.00;;;;;;5056187;28;20111;-78
2022/04/09 05:54:50;;;;;;;11.07;2.85;;;6.40;98.70;;;;;;5057003;28;20075;-77
2022/04/09 05:57:16;;;;;;;9.05;2.55;;;6.40;98.70;;;;;;5056731;28;20043;-76
2022/04/09 05:59:41;;;;;;;16.30;2.10;;;6.40;98.50;;;;;;5056808;28;20033;-74
2022/04/09 06:02:08;;;;;;;6.03;1.73;;;6.40;98.50;;;;;;5056809;28;20029;-75
2022/04/09 06:04:33;;;;;;;7.45;2.03;;;6.50;98.60;;;;;;5056369;28;20028;-79
2022/04/09 06:07:01;;;;;;;6.20;2.38;;;6.40;98.40;;;;;;5053390;28;20033;-76
2022/04/09 06:09:26;;;;;;;10.98;2.08;;;6.50;98.40;;;;;;5053107;28;20037;-75
2022/04/09 06:11:52;;;;;;;10.82;2.28;;;6.50;98.40;;;;;;5053474;28;20397;-76
2022/04/09 06:14:18;;;;;;;11.57;2.95;;;6.50;98.50;;;;;;5053539;28;20087;-76
2022/04/09 06:16:44;;;;;;;8.38;1.92;;;6.60;98.40;;;;;;5053361;28;20029;-76
2022/04/09 06:19:10;;;;;;;8.05;2.92;;;6.60;98.20;;;;;;5054214;28;20334;-79
2022/04/09 06:21:36;;;;;;;13.95;1.88;;;6.60;98.00;;;;;;5053385;28;20028;-78
2022/04/09 06:24:03;;;;;;;9.55;2.35;;;6.60;97.90;;;;;;5053923;28;20373;-82
2022/04/09 06:26:28;;;;;;;7.87;1.60;;;6.70;97.80;;;;;;5053556;28;20048;-81
2022/04/09 06:28:55;;;;;;;13.63;1.80;;;6.80;97.60;;;;;;5060920;28;20032;-83
2022/04/09 06:31:20;;;;;;;8.90;1.88;;;6.80;97.60;;;;;;5056342;28;20048;-78
2022/04/09 06:33:46;;;;;;;6.45;1.73;;;6.90;97.60;;;;;;5053106;28;20037;-80
2022/04/09 06:36:11;;;;;;;9.88;1.92;;;6.80;97.50;;;;;;5052878;28;20067;-78
2022/04/09 06:38:37;;;;;;;8.20;1.50;;;6.90;97.50;;;;;;5053490;28;20107;-80
2022/04/09 06:41:06;;;;;;;9.50;2.30;;;7.00;97.40;;;;;;5053811;28;20029;-83
2022/04/09 06:43:31;;;;;;;8.25;1.98;;;7.20;97.30;;;;;;5057837;28;20036;-78
2022/04/09 06:45:57;;;;;;;5.70;1.60;;;7.20;97.10;;;;;;5055911;28;20112;-77
2022/04/09 06:48:23;;;;;;;6.03;1.63;;;7.20;96.80;;;;;;5053254;28;20063;-77
2022/04/09 06:50:48;;;;;;;16.10;2.10;;;7.40;96.70;;;;;;5051910;28;20053;-75
2022/04/09 06:53:14;;;;;;;9.10;1.85;;;7.30;96.40;;;;;;5053112;28;20486;-80
2022/04/09 06:55:41;;;;;;;13.48;1.83;;;7.40;96.40;;;;;;5052887;28;20354;-76
2022/04/09 06:58:06;;;;;;;16.88;2.10;;;7.50;96.50;;;;;;5053155;28;20149;-77
2022/04/09 07:00:33;;;;;;;16.65;2.05;;;7.50;96.40;;;;;;5051822;28;20071;-77
2022/04/09 07:03:00;;;;;;;9.77;1.67;;;7.60;96.40;;;;;;5052663;28;20040;-79
2022/04/09 07:05:26;;;;;;;7.18;1.40;;;7.70;96.30;;;;;;5052627;28;20033;-81
2022/04/09 07:07:52;;;;;;;12.25;2.70;;;7.70;96.10;;;;;;5051602;28;20404;-79
2022/04/09 07:10:18;;;;;;;8.82;1.48;;;7.70;96.10;;;;;;5052910;28;20101;-79
2022/04/09 07:12:43;;;;;;;7.88;1.73;;;7.70;96.10;;;;;;5052454;28;20036;-79
2022/04/09 07:15:10;;;;;;;7.32;1.40;;;7.70;96.00;;;;;;5052428;28;20063;-78
2022/04/09 07:17:36;;;;;;;12.93;1.70;;;7.70;96.10;;;;;;5051073;28;20032;-77
2022/04/09 07:20:07;;;;;;;9.05;1.70;;;7.80;96.00;;;;;;5052460;28;20117;-77
2022/04/09 07:22:34;;;;;;;15.75;2.00;;;7.80;95.90;;;;;;5052892;28;20072;-78
2022/04/09 07:25:00;;;;;;;7.63;1.80;;;7.80;95.60;;;;;;5055007;28;20037;-80
2022/04/09 07:27:40;;;;;;;7.20;1.17;;;7.90;95.80;;;;;;5052712;28;20048;-81
2022/04/09 07:30:11;;;;;;;12.77;1.95;;;8.00;95.70;;;;;;5051880;28;20032;-80
2022/04/09 07:32:37;;;;;;;9.25;1.40;;;8.00;95.30;;;;;;5052310;28;20040;-80
2022/04/09 07:35:03;;;;;;;17.95;2.35;;;8.00;95.00;;;;;;5050660;28;20041;-82
2022/04/09 07:37:29;;;;;;;5.75;1.30;;;8.10;95.00;;;;;;5052221;28;20111;-82
2022/04/09 07:39:54;;;;;;;13.48;2.03;;;8.10;95.00;;;;;;5052584;28;20175;-79
2022/04/09 07:42:21;;;;;;;8.32;1.63;;;8.20;94.70;;;;;;5051866;28;20044;-78
2022/04/09 07:44:47;;;;;;;12.65;2.33;;;8.10;94.90;;;;;;5051793;28;20106;-80
2022/04/09 07:47:13;;;;;;;11.88;2.13;;;8.30;94.60;;;;;;5050781;28;20024;-81
2022/04/09 07:49:38;;;;;;;11.60;2.58;;;8.40;94.50;;;;;;5052334;28;20017;-78
2022/04/09 07:52:04;;;;;;;8.80;1.77;;;8.30;94.40;;;;;;5051848;28;20041;-80
2022/04/09 07:54:31;;;;;;;11.57;1.60;;;8.20;94.10;;;;;;5051678;28;20322;-80
2022/04/09 07:56:56;;;;;;;6.28;1.45;;;8.20;94.00;;;;;;5051416;28;20025;-79
2022/04/09 07:59:22;;;;;;;9.20;1.30;;;8.40;94.20;;;;;;5051623;28;20465;-80
2022/04/09 08:01:48;;;;;;;6.57;1.52;;;8.50;94.00;;;;;;5051540;28;20525;-79
2022/04/09 08:04:13;;;;;;;6.00;1.63;;;8.40;94.00;;;;;;5052347;28;20025;-80
2022/04/09 08:06:39;;;;;;;15.73;1.45;;;8.60;94.20;;;;;;5051490;28;20426;-79
2022/04/09 08:09:05;;;;;;;9.55;1.60;;;8.70;93.90;;;;;;5051452;28;20351;-78
2022/04/09 08:11:31;;;;;;;16.42;1.75;;;8.80;93.80;;;;;;5051951;28;20036;-75
2022/04/09 08:13:56;;;;;;;7.05;1.38;;;8.60;93.60;;;;;;5051251;28;20021;-78
2022/04/09 08:16:23;;;;;;;11.50;2.42;;;8.80;93.60;;;;;;5052085;28;20128;-81
2022/04/09 08:18:49;;;;;;;4.75;1.33;;;9.10;93.30;;;;;;5050981;28;20040;-79
2022/04/09 08:21:16;;;;;;;9.73;1.75;;;9.50;92.90;;;;;;5051017;28;20029;-80
2022/04/09 08:23:42;;;;;;;12.57;2.15;;;9.60;92.60;;;;;;5051419;28;20029;-80
2022/04/09 08:26:07;;;;;;;7.35;1.55;;;9.90;91.80;;;;;;5050045;28;20025;-81
2022/04/09 08:28:36;;;;;;;7.65;1.05;;;9.90;92.00;;;;;;5051342;28;20032;-80
2022/04/09 08:31:02;;;;;;;;;;;9.80;92.00;;;;;;5051670;28;20388;-80
2022/04/09 08:33:27;;;;;;;8.40;1.30;;;10.70;90.90;;;;;;5050971;28;19939;-75
2022/04/09 08:35:53;;;;;;;7.80;1.13;;;11.70;90.40;;;;;;5050824;28;20474;-78
2022/04/09 08:38:19;;;;;;;10.27;1.10;;;12.20;87.80;;;;;;5051011;28;20344;-78
2022/04/09 08:40:45;;;;;;;9.45;2.17;;;12.30;85.10;;;;;;5050763;28;20028;-77
2022/04/09 08:43:11;;;;;;;6.72;1.08;;;11.60;84.30;;;;;;5051138;28;20035;-80
2022/04/09 08:45:42;;;;;;;6.00;1.58;;;11.50;85.00;;;;;;5050703;28;20033;-75
2022/04/09 08:48:09;;;;;;;10.07;1.40;;;11.20;84.10;;;;;;5049800;28;20137;-77
2022/04/09 08:50:36;;;;;;;8.07;1.33;;;10.90;85.20;;;;;;5050652;28;20035;-74
2022/04/09 08:53:06;;;;;;;6.35;1.08;;;11.30;85.70;;;;;;5050653;28;20047;-77
2022/04/09 08:55:40;;;;;;;6.70;1.33;;;11.40;84.00;;;;;;5050010;28;20097;-75
2022/04/09 08:58:06;;;;;;;5.80;1.15;;;11.10;84.30;;;;;;5050961;28;20044;-76
2022/04/09 09:00:33;;;;;;;4.63;0.95;;;11.00;84.40;;;;;;5050745;28;20033;-74
2022/04/09 09:03:01;;;;;;;6.45;1.40;;;10.80;83.20;;;;;;5049533;28;20041;-74
2022/04/09 09:05:52;;;;;;;4.72;1.50;;;10.60;82.20;;;;;;5050662;28;20116;-78
2022/04/09 09:08:38;;;;;;;6.30;1.10;;;10.40;82.90;;;;;;5051035;28;20029;-85
2022/04/09 09:11:07;;;;;;;3.05;1.20;;;10.50;84.10;;;;;;5050791;28;20087;-77
2022/04/09 09:13:53;;;;;;;6.28;1.33;;;11.60;83.70;;;;;;5050863;28;20033;-78
2022/04/09 09:16:25;;;;;;;3.42;0.95;;;13.10;80.70;;;;;;5050612;28;20037;-77
2022/04/09 09:18:53;;;;;;;5.20;1.02;;;13.70;77.10;;;;;;5049419;28;20098;-81
2022/04/09 09:21:23;;;;;;;6.88;1.48;;;13.80;75.40;;;;;;5050481;28;20029;-76
2022/04/09 09:23:52;;;;;;;10.20;2.30;;;13.50;70.10;;;;;;5050881;28;20059;-81
2022/04/09 09:26:24;;;;;;;6.75;1.23;;;13.50;70.10;;;;;;5051519;28;20060;-85
2022/04/09 09:28:55;;;;;;;5.32;1.33;;;13.80;69.90;;;;;;5051414;28;20020;-88
2022/04/09 09:31:44;;;;;;;3.85;1.23;;;14.00;70.50;;;;;;5051035;28;20028;-76
2022/04/09 09:34:19;;;;;;;4.18;1.25;;;12.80;68.70;;;;;;5051021;28;20049;-81
2022/04/09 09:36:45;;;;;;;2.45;0.98;;;12.60;69.80;;;;;;5049525;28;20056;-79
2022/04/09 09:39:13;;;;;;;5.03;1.17;;;13.00;70.60;;;;;;5050399;28;20033;-78
2022/04/09 09:41:57;;;;;;;5.88;1.23;;;12.50;69.80;;;;;;5051130;28;20040;-78
2022/04/09 09:44:27;;;;;;;2.88;1.05;;;12.10;72.30;;;;;;5054305;28;20021;-78
2022/04/09 09:46:54;;;;;;;4.03;1.20;;;11.90;73.60;;;;;;5054709;28;20029;-80
2022/04/09 09:49:23;;;;;;;4.53;1.07;;;11.40;75.30;;;;;;5054487;28;20358;-81
2022/04/09 09:52:04;;;;;;;6.30;1.20;;;11.20;76.10;;;;;;5054441;28;20124;-81
2022/04/09 09:54:30;;;;;;;6.60;1.23;;;11.00;76.70;;;;;;5052808;28;20037;-80
2022/04/09 09:56:55;;;;;;;6.65;1.10;;;11.20;77.40;;;;;;5053977;28;20349;-81
2022/04/09 09:59:22;;;;;;;10.05;1.40;;;11.20;77.60;;;;;;5052761;28;20116;-77
2022/04/09 10:01:48;;;;;;;3.78;1.10;;;10.90;81.00;;;;;;5053585;28;20525;-81
2022/04/09 10:04:13;;;;;;;4.03;0.90;;;10.80;82.70;;;;;;5054299;28;20021;-80
2022/04/09 10:06:42;;;;;;;7.03;1.00;;;11.40;83.50;;;;;;5053925;28;20108;-80
2022/04/09 10:09:13;;;;;;;;;;;12.30;81.70;;;;;;5053087;28;20110;-80
2022/04/09 10:11:49;;;;;;;4.78;0.90;;;12.10;79.90;;;;;;5053886;28;20345;-81
2022/04/09 10:14:21;;;;;;;7.35;0.98;;;10.70;84.00;;;;;;5052685;28;20064;-82
2022/04/09 10:16:50;;;;;;;4.75;0.95;;;10.90;88.70;;;;;;5053680;28;20112;-83
2022/04/09 10:19:18;;;;;;;1.50;0.60;;;11.50;89.90;;;;;;5053061;28;20403;-77
2022/04/09 10:21:46;;;;;;;;;;;13.00;88.70;;;;;;5053184;28;20112;-76
2022/04/09 10:24:18;;;;;;;2.28;0.75;;;14.10;86.50;;;;;;5053547;28;19908;-80
2022/04/09 10:26:45;;;;;;;4.50;0.82;;;14.80;83.40;;;;;;5053366;28;20362;-75
2022/04/09 10:29:10;;;;;;;2.80;0.90;;;15.20;81.70;;;;;;5053106;28;20036;-77
2022/04/09 10:31:38;;;;;;;4.05;1.20;;;14.70;80.10;;;;;;5053460;28;20029;-79
2022/04/09 10:34:07;;;;;;;3.55;0.80;;;15.30;79.00;;;;;;5052837;28;20379;-78
2022/04/09 10:36:44;;;;;;;3.92;1.08;;;15.50;77.90;;;;;;5053041;28;20052;-79
2022/04/09 10:39:22;;;;;;;2.17;0.57;;;15.50;77.80;;;;;;5053363;28;20037;-84
2022/04/09 10:41:48;;;;;;;;;;;16.90;77.60;;;;;;5053687;28;20090;-87
2022/04/09 10:44:51;;;;;;;2.33;0.55;;;16.70;72.60;;;;;;5052151;28;19909;-86
2022/04/09 10:47:18;;;;;;;3.30;0.60;;;16.90;70.70;;;;;;5052888;28;20426;-82
2022/04/09 10:50:05;;;;;;;1.40;0.77;;;16.90;71.70;;;;;;5052899;28;20028;-83
2022/04/09 10:52:32;;;;;;;9.00;1.50;;;17.80;70.20;;;;;;5039097;28;20036;-83
2022/04/09 10:55:10;;;;;;;7.15;1.10;;;17.90;66.70;;;;;;5052176;28;20476;-81
2022/04/09 10:57:43;;;;;;;;;;;16.40;67.70;;;;;;5052580;28;20063;-82
2022/04/09 11:00:31;;;;;;;1.58;0.70;;;15.60;71.00;;;;;;5052762;28;19949;-81
2022/04/09 11:03:17;;;;;;;3.35;1.15;;;15.70;70.50;;;;;;5052814;28;20061;-81
2022/04/09 11:05:43;;;;;;;3.72;0.70;;;14.60;73.00;;;;;;5051530;28;20048;-79
2022/04/09 11:08:18;;;;;;;1.65;0.43;;;12.70;76.30;;;;;;5052273;28;20047;-75
2022/04/09 11:10:43;;;;;;;3.83;0.50;;;12.00;78.70;;;;;;5051581;28;20031;-84
2022/04/09 11:13:12;;;;;;;3.55;1.10;;;11.60;81.90;;;;;;5052530;28;20025;-77
2022/04/09 11:15:39;;;;;;;5.63;1.17;;;11.80;84.10;;;;;;5051278;28;20498;-79
2022/04/09 11:18:05;;;;;;;4.20;0.95;;;11.70;85.80;;;;;;5052408;28;20025;-80
2022/04/09 11:20:33;;;;;;;1.50;0.50;;;12.00;86.70;;;;;;5052279;28;20542;-77
2022/04/09 11:23:14;;;;;;;3.63;0.90;;;12.20;87.60;;;;;;5052199;28;20021;-79
2022/04/09 11:25:44;;;;;;;5.88;0.82;;;12.40;87.90;;;;;;5051161;28;20032;-78
2022/04/09 11:28:17;;;;;;;4.68;0.60;;;12.50;87.20;;;;;;5052720;28;20021;-81
2022/04/09 11:31:04;;;;;;;3.53;0.75;;;12.40;87.20;;;;;;5052258;28;20028;-78
2022/04/09 11:33:30;;;;;;;7.03;1.07;;;12.10;86.20;;;;;;5051811;28;20032;-77
2022/04/09 11:35:57;;;;;;;5.03;1.35;;;12.60;87.00;;;;;;5051143;28;20182;-78
2022/04/09 11:38:26;;;;;;;10.02;1.38;;;12.80;86.50;;;;;;5052046;28;20082;-79
2022/04/09 11:40:53;;;;;;;3.70;1.25;;;12.80;86.10;;;;;;5051865;28;20112;-78
2022/04/09 11:43:19;;;;;;;4.00;1.00;;;12.90;85.50;;;;;;5052204;28;20163;-77
2022/04/09 11:45:45;;;;;;;1.70;0.73;;;13.00;85.40;;;;;;5051605;28;20124;-82
2022/04/09 11:48:18;;;;;;;4.55;1.17;;;13.40;84.80;;;;;;5051454;28;20083;-83
2022/04/09 11:50:46;;;;;;;3.40;0.85;;;13.60;85.80;;;;;;5051918;28;20072;-79
2022/04/09 11:53:16;;;;;;;3.33;1.15;;;13.70;84.80;;;;;;5051412;28;20037;-80
2022/04/09 11:55:43;;;;;;;6.32;1.08;;;14.00;83.80;;;;;;5051707;28;20316;-80
2022/04/09 11:58:11;;;;;;;3.72;0.93;;;13.30;83.80;;;;;;5051876;28;20078;-76
2022/04/09 12:00:37;;;;;;;;;;;13.60;84.40;;;;;;5051629;28;20048;-76
2022/04/09 12:03:05;;;;;;;3.13;0.93;;;13.80;82.90;;;;;;5051163;28;20479;-77
2022/04/09 12:05:46;;;;;;;7.22;0.95;;;13.50;81.90;;;;;;5051051;28;20029;-71
2022/04/09 12:08:17;;;;;;;7.40;2.15;;;13.00;81.10;;;;;;5051218;28;20463;-75
2022/04/09 12:11:00;;;;;;;4.95;0.68;;;10.80;85.80;;;;;;5050179;28;20111;-75
2022/04/09 12:13:33;;;;;;;1.63;0.40;;;9.90;90.30;;;;;;5051541;28;20081;-74
2022/04/09 12:16:17;;;;;;;2.55;0.63;;;10.10;89.50;;;;;;5051145;28;20117;-73
2022/04/09 12:18:44;;;;;;;5.00;0.70;;;9.80;90.40;;;;;;5051114;28;20051;-75
2022/04/09 12:21:27;;;;;;;6.22;1.80;;;9.70;90.50;;;;;;5051046;28;20032;-73
2022/04/09 12:24:07;;;;;;;4.38;0.70;;;9.50;90.80;;;;;;5050372;28;20104;-75
2022/04/09 12:26:35;;;;;;;2.80;0.80;;;9.20;91.30;;;;;;5051234;28;20323;-76
2022/04/09 12:29:20;;;;;;;4.20;0.98;;;9.30;91.60;;;;;;5051024;28;20029;-77
2022/04/09 12:31:48;;;;;;;5.97;1.00;;;9.00;92.20;;;;;;5050996;28;20032;-77
2022/04/09 12:34:15;;;;;;;4.75;1.17;;;9.20;93.30;;;;;;5050156;28;20573;-77
2022/04/09 12:36:59;;;;;;;4.45;0.90;;;9.50;93.10;;;;;;5049540;28;20051;-76
2022/04/09 12:39:26;;;;;;;8.18;1.27;;;10.10;92.50;;;;;;5051026;28;20075;-77
2022/04/09 12:41:52;;;;;;;5.78;1.10;;;10.20;92.40;;;;;;5050903;28;20021;-76
2022/04/09 12:44:32;;;;;;;5.97;0.85;;;10.40;91.50;;;;;;5049775;28;20104;-77
2022/04/09 12:46:58;;;;;;;5.53;1.08;;;10.50;91.50;;;;;;5050820;28;20025;-75
2022/04/09 12:49:37;;;;;;;3.00;0.90;;;10.90;92.70;;;;;;5051269;28;20017;-76
2022/04/09 12:52:04;;;;;;;5.05;1.40;;;10.90;92.30;;;;;;5050730;28;20063;-75
2022/04/09 12:54:31;;;;;;;6.95;1.95;;;10.90;92.20;;;;;;5050651;28;20362;-72
2022/04/09 12:57:11;;;;;;;3.08;1.25;;;10.80;92.30;;;;;;5049670;28;20116;-73